Time;durP1;ratioP1;P1;durP2;ratioP2;P2;SDS_P1;SDS_P2;PMS_P1;PMS_P2;Temp;Humidity;BMP_temperature;BMP_pressure;BME280_temperature;BME280_humidity;BME280_pressure;Samples;Min_cycle;Max_cycle;Signal;HPM_P1;HPM_P2
2021/09/14 00:00:36;;;;;;;9.30;8.20;;;;;;;13.32;84.81;100710.61;94701;1192;80104;-62
2021/09/14 00:02:47;;;;;;;11.40;8.10;;;;;;;13.33;84.78;100708.40;94712;1192;80314;-62
2021/09/14 00:04:52;;;;;;;9.20;7.80;;;;;;;13.32;84.69;100706.69;94682;1192;99840;-62
2021/09/14 00:07:02;;;;;;;9.00;7.60;;;;;;;13.32;84.79;100707.11;94698;1192;86973;-62
2021/09/14 00:09:07;;;;;;;11.80;7.70;;;;;;;13.32;84.66;100706.36;94693;1192;93754;-63
2021/09/14 00:11:11;;;;;;;10.90;8.20;;;;;;;13.30;84.74;100708.10;94685;1177;80682;-61
2021/09/14 00:13:15;;;;;;;9.10;7.20;;;;;;;13.30;84.82;100707.68;94671;1192;81578;-61
2021/09/14 00:15:19;;;;;;;11.60;8.10;;;;;;;13.30;84.89;100707.02;94715;1192;98445;-62
2021/09/14 00:17:24;;;;;;;9.30;7.40;;;;;;;13.28;84.79;100703.62;94728;1193;89759;-62
2021/09/14 00:19:31;;;;;;;9.10;7.40;;;;;;;13.27;84.84;100706.31;94666;1192;94288;-61
2021/09/14 00:21:35;;;;;;;8.70;7.50;;;;;;;13.25;84.86;100704.52;94652;1192;80258;-75
2021/09/14 00:23:39;;;;;;;11.70;7.60;;;;;;;13.23;84.75;100705.17;94727;1192;81040;-74
2021/09/14 00:25:47;;;;;;;12.00;8.40;;;;;;;13.21;84.82;100708.46;94717;1192;99123;-76
2021/09/14 00:27:51;;;;;;;11.30;8.20;;;;;;;13.17;85.00;100709.69;94727;1193;87508;-76
2021/09/14 00:29:58;;;;;;;11.10;7.70;;;;;;;13.15;85.14;100710.05;94685;1192;94545;-74
2021/09/14 00:32:03;;;;;;;9.50;7.30;;;;;;;13.18;85.05;100713.03;94668;1192;81125;-73
2021/09/14 00:34:07;;;;;;;10.50;7.20;;;;;;;13.19;85.10;100714.16;94698;1192;81569;-73
2021/09/14 00:36:11;;;;;;;10.00;7.90;;;;;;;13.22;85.09;100714.31;94682;1192;98887;-63
2021/09/14 00:38:15;;;;;;;8.90;7.90;;;;;;;13.22;85.23;100713.02;94698;1192;88301;-61
2021/09/14 00:40:19;;;;;;;10.70;8.10;;;;;;;13.24;85.20;100713.20;94713;1193;94640;-75
2021/09/14 00:42:24;;;;;;;11.00;7.90;;;;;;;13.22;85.23;100712.68;94715;1192;79686;-76
2021/09/14 00:44:31;;;;;;;13.00;8.30;;;;;;;13.23;85.27;100715.11;94707;1192;80290;-75
2021/09/14 00:46:38;;;;;;;11.00;7.70;;;;;;;13.26;85.32;100717.10;94667;1177;97507;-77
2021/09/14 00:48:42;;;;;;;9.20;8.00;;;;;;;13.29;85.40;100722.99;94690;1192;88264;-77
2021/09/14 00:50:47;;;;;;;11.10;8.30;;;;;;;13.32;85.49;100721.42;94679;1192;94384;-77
2021/09/14 00:52:52;;;;;;;11.00;7.90;;;;;;;13.33;85.45;100723.15;94707;1192;79910;-76
2021/09/14 00:54:59;;;;;;;9.60;7.60;;;;;;;13.36;85.48;100722.76;94735;1192;81942;-73
2021/09/14 00:57:05;;;;;;;10.60;8.50;;;;;;;13.37;85.56;100720.75;94698;1192;99126;-77
2021/09/14 00:59:09;;;;;;;14.80;9.20;;;;;;;13.40;85.56;100717.77;94741;1192;86849;-77
2021/09/14 01:01:14;;;;;;;12.00;7.80;;;;;;;13.42;85.58;100719.15;94691;1192;93872;-76
2021/09/14 01:03:18;;;;;;;10.70;8.60;;;;;;;13.45;85.73;100721.92;94602;1192;80466;-76
2021/09/14 01:05:22;;;;;;;12.30;8.70;;;;;;;13.48;85.79;100723.53;94692;1192;80755;-61
2021/09/14 01:07:27;;;;;;;11.00;8.30;;;;;;;13.53;85.81;100725.06;94680;1191;99315;-61
2021/09/14 01:09:33;;;;;;;12.20;9.00;;;;;;;13.57;85.67;100727.38;94710;1192;87776;-61
2021/09/14 01:11:39;;;;;;;11.70;8.80;;;;;;;13.62;85.70;100727.41;94685;1193;92906;-76
2021/09/14 01:13:43;;;;;;;11.90;9.90;;;;;;;13.64;85.76;100725.87;94676;1192;79096;-75
2021/09/14 01:15:47;;;;;;;12.00;9.30;;;;;;;13.67;85.69;100724.34;94670;1191;82003;-60
2021/09/14 01:17:51;;;;;;;10.40;9.00;;;;;;;13.68;85.61;100725.73;94683;1192;99376;-61
2021/09/14 01:19:59;;;;;;;13.00;9.70;;;;;;;13.69;85.65;100722.85;94706;1192;86768;-64
2021/09/14 01:22:03;;;;;;;11.40;9.60;;;;;;;13.72;85.51;100718.42;94723;1193;92250;-77
2021/09/14 01:24:08;;;;;;;11.70;9.00;;;;;;;13.71;85.53;100716.25;94603;1193;82325;-76
2021/09/14 01:26:12;;;;;;;10.90;8.90;;;;;;;13.68;85.69;100716.77;94696;1178;81575;-77
2021/09/14 01:28:16;;;;;;;10.90;8.40;;;;;;;13.67;85.59;100716.37;94677;1192;99244;-77
2021/09/14 01:30:20;;;;;;;9.70;8.40;;;;;;;13.69;85.63;100719.38;94673;1191;86856;-73
2021/09/14 01:32:24;;;;;;;11.50;8.60;;;;;;;13.73;85.73;100715.39;94708;1192;94586;-73
2021/09/14 01:34:32;;;;;;;11.70;8.30;;;;;;;13.78;85.72;100712.73;94670;1192;81262;-79
2021/09/14 01:36:36;;;;;;;10.40;8.00;;;;;;;13.79;85.67;100716.00;94688;1193;81528;-80
2021/09/14 01:38:40;;;;;;;11.90;8.40;;;;;;;13.81;85.66;100715.30;94616;1192;99219;-81
2021/09/14 01:40:47;;;;;;;12.40;9.00;;;;;;;13.82;85.77;100714.94;94585;1192;88082;-79
2021/09/14 01:42:51;;;;;;;9.90;8.50;;;;;;;13.84;85.85;100714.57;94720;1192;94608;-79
2021/09/14 01:44:58;;;;;;;12.30;8.00;;;;;;;13.85;85.75;100713.94;94685;1192;80207;-79
2021/09/14 01:47:03;;;;;;;9.80;7.80;;;;;;;13.90;85.73;100716.77;94719;1192;81923;-79
2021/09/14 01:49:07;;;;;;;10.10;8.00;;;;;;;13.91;85.65;100713.30;94743;1191;97965;-80
2021/09/14 01:51:12;;;;;;;9.60;7.50;;;;;;;13.93;85.68;100716.85;94661;1192;87756;-63
2021/09/14 01:53:16;;;;;;;8.70;7.80;;;;;;;13.94;85.60;100711.46;94697;1193;93961;-62
2021/09/14 01:55:21;;;;;;;10.30;8.40;;;;;;;13.94;85.63;100710.89;94683;1192;78243;-80
2021/09/14 01:57:28;;;;;;;10.00;8.60;;;;;;;13.95;85.67;100711.84;94688;1192;81101;-77
2021/09/14 01:59:36;;;;;;;10.00;8.40;;;;;;;13.95;85.75;100713.64;94669;1192;98770;-76
2021/09/14 02:01:42;;;;;;;11.40;8.30;;;;;;;13.95;85.66;100716.27;94703;1190;87622;-77
2021/09/14 02:03:54;;;;;;;11.40;7.70;;;;;;;13.97;85.76;100723.25;94685;1191;92678;-78
2021/09/14 02:33:48;;;;;;;9.10;8.10;;;;;;;13.96;85.79;100719.24;94067;1195;77810;-63
2021/09/14 02:42:41;;;;;;;8.90;7.60;;;;;;;13.96;85.93;100710.13;94391;1193;81162;-64
2021/09/14 02:56:10;;;;;;;11.80;8.00;;;;;;;13.96;85.93;100710.13;94692;1192;81777;-64
2021/09/14 02:59:25;;;;;;;;;;;;;;;13.99;86.01;100718.45;94715;1191;97753;-63
2021/09/14 03:01:29;;;;;;;11.70;7.20;;;;;;;13.97;86.13;100715.11;94695;1193;87962;-62
2021/09/14 03:03:34;;;;;;;10.40;8.80;;;;;;;13.97;86.19;100715.28;94709;1192;93768;-62
2021/09/14 03:05:41;;;;;;;10.80;8.50;;;;;;;13.97;86.21;100719.00;94704;1192;79056;-79
2021/09/14 03:07:45;;;;;;;9.80;8.20;;;;;;;13.99;86.27;100717.33;94728;1192;81691;-80
2021/09/14 03:09:49;;;;;;;10.50;8.70;;;;;;;13.97;86.26;100721.92;94690;1192;99215;-78
2021/09/14 03:11:53;;;;;;;10.80;7.70;;;;;;;14.00;86.18;100719.17;94685;1192;87296;-79
2021/09/14 03:13:58;;;;;;;9.80;8.00;;;;;;;14.03;86.18;100719.65;94681;1192;94511;-79
2021/09/14 03:16:02;;;;;;;9.90;8.60;;;;;;;14.08;86.13;100718.20;94695;1192;78857;-80
2021/09/14 03:18:06;;;;;;;10.70;8.10;;;;;;;14.10;86.10;100717.49;94683;1192;80526;-78
2021/09/14 03:20:13;;;;;;;11.00;8.30;;;;;;;14.09;86.04;100720.63;94641;1193;99161;-79
2021/09/14 03:22:17;;;;;;;10.50;8.70;;;;;;;14.07;85.98;100722.17;94694;1192;88089;-79
2021/09/14 03:24:21;;;;;;;10.20;8.20;;;;;;;14.08;85.95;100722.55;94680;1192;93424;-80
2021/09/14 03:26:25;;;;;;;10.70;8.30;;;;;;;14.12;85.90;100724.65;94658;1192;78067;-64
2021/09/14 03:28:33;;;;;;;10.90;9.00;;;;;;;14.17;85.89;100725.03;94671;1193;80218;-63
2021/09/14 03:30:37;;;;;;;12.20;9.30;;;;;;;14.15;85.85;100725.55;94703;1192;98512;-79
2021/09/14 03:32:41;;;;;;;11.50;8.60;;;;;;;14.14;85.91;100724.20;94679;1192;88813;-78
2021/09/14 03:34:45;;;;;;;9.60;7.90;;;;;;;14.13;85.90;100723.57;94685;1192;93040;-80
2021/09/14 03:36:49;;;;;;;10.50;8.30;;;;;;;14.09;86.02;100726.27;94549;1192;80016;-81
2021/09/14 03:38:53;;;;;;;13.20;8.20;;;;;;;14.09;85.90;100727.36;94707;1192;80674;-78
2021/09/14 03:40:58;;;;;;;8.80;7.90;;;;;;;14.10;85.99;100723.56;94684;1192;99377;-64
2021/09/14 03:43:02;;;;;;;11.50;8.40;;;;;;;14.10;85.99;100723.98;94703;1192;87949;-63
2021/09/14 03:45:08;;;;;;;12.10;8.70;;;;;;;14.10;86.00;100725.43;94723;1191;93746;-63
2021/09/14 03:47:12;;;;;;;8.00;7.20;;;;;;;14.09;85.97;100729.15;94671;1192;79497;-64
2021/09/14 03:49:16;;;;;;;10.80;8.20;;;;;;;14.12;85.89;100728.04;94715;1190;82641;-63
2021/09/14 03:51:20;;;;;;;9.40;7.70;;;;;;;14.16;85.95;100731.55;94584;1192;97638;-80
2021/09/14 03:53:24;;;;;;;10.20;8.50;;;;;;;14.15;85.90;100731.85;94693;1192;86791;-79
2021/09/14 03:55:29;;;;;;;11.00;8.40;;;;;;;14.15;85.96;100729.42;94713;1192;94571;-63
2021/09/14 03:57:33;;;;;;;11.30;8.40;;;;;;;14.13;85.99;100734.06;94693;1192;79925;-61
2021/09/14 03:59:41;;;;;;;10.10;8.00;;;;;;;14.15;86.03;100735.40;94741;1193;81465;-63
2021/09/14 04:01:50;;;;;;;10.80;7.60;;;;;;;14.14;85.88;100734.48;94743;1191;98742;-62
2021/09/14 04:04:02;;;;;;;8.50;7.50;;;;;;;14.12;85.87;100740.23;94774;1192;87397;-63
2021/09/14 04:06:24;;;;;;;9.30;8.00;;;;;;;14.11;85.98;100735.46;94660;1192;93726;-78
2021/09/14 04:08:51;;;;;;;9.40;8.50;;;;;;;14.14;86.05;100737.08;94693;1192;80935;-78
2021/09/14 04:10:57;;;;;;;12.50;8.60;;;;;;;14.14;86.05;100735.90;94722;1191;81159;-63
2021/09/14 04:13:01;;;;;;;10.40;8.80;;;;;;;14.14;85.89;100738.77;94721;1191;97972;-62
2021/09/14 04:15:08;;;;;;;10.00;9.00;;;;;;;14.10;85.94;100734.14;94688;1193;86923;-62
2021/09/14 04:17:12;;;;;;;10.40;9.00;;;;;;;14.12;86.02;100738.56;94734;1193;93300;-62
2021/09/14 04:19:17;;;;;;;10.00;8.90;;;;;;;14.13;86.05;100736.27;94658;1193;80093;-62
2021/09/14 04:21:21;;;;;;;10.20;8.20;;;;;;;14.16;86.05;100740.92;94692;1193;80350;-79
2021/09/14 04:23:25;;;;;;;9.80;8.60;;;;;;;14.17;86.04;100747.23;94716;1192;97458;-80
2021/09/14 04:25:29;;;;;;;11.10;8.40;;;;;;;14.19;86.06;100746.70;94712;1192;87764;-63
2021/09/14 04:27:33;;;;;;;10.60;8.80;;;;;;;14.18;86.10;100747.73;94702;1192;92663;-63
2021/09/14 04:29:37;;;;;;;10.10;9.00;;;;;;;14.17;86.08;100747.58;94687;1192;78006;-63
2021/09/14 04:31:42;;;;;;;11.00;8.90;;;;;;;14.19;86.16;100749.80;94697;1192;81722;-78
2021/09/14 04:33:46;;;;;;;12.50;9.10;;;;;;;14.18;86.21;100749.66;94680;1192;99602;-75
2021/09/14 04:35:53;;;;;;;11.40;9.00;;;;;;;14.18;86.27;100750.38;94684;1192;87780;-62
2021/09/14 04:37:57;;;;;;;10.50;8.60;;;;;;;14.21;86.28;100747.54;94728;1191;93852;-62
2021/09/14 04:40:02;;;;;;;9.90;8.90;;;;;;;14.26;86.24;100751.42;94710;1193;79077;-71
2021/09/14 04:42:06;;;;;;;10.60;9.20;;;;;;;14.27;86.22;100755.22;94721;1192;81850;-74
2021/09/14 04:44:11;;;;;;;10.70;8.90;;;;;;;14.27;86.24;100753.38;94693;1192;99011;-74
2021/09/14 04:46:15;;;;;;;13.10;8.60;;;;;;;14.29;86.24;100755.64;94706;1192;88121;-74
2021/09/14 04:48:19;;;;;;;10.20;9.00;;;;;;;14.32;86.22;100761.65;94669;1192;92911;-75
2021/09/14 04:50:23;;;;;;;9.70;8.10;;;;;;;14.37;86.20;100764.89;94693;1193;79800;-61
2021/09/14 04:52:28;;;;;;;10.80;8.70;;;;;;;14.42;86.19;100767.11;94683;1191;81591;-62
2021/09/14 04:54:36;;;;;;;13.00;9.60;;;;;;;14.46;86.15;100767.13;94696;1192;97634;-62
2021/09/14 04:56:40;;;;;;;10.20;9.10;;;;;;;14.50;86.11;100765.50;94699;1193;89235;-75
2021/09/14 04:58:46;;;;;;;10.60;8.60;;;;;;;14.53;86.23;100769.32;94571;1192;93446;-74
2021/09/14 05:00:50;;;;;;;14.40;8.30;;;;;;;14.56;86.22;100771.95;94671;1192;82264;-75
2021/09/14 05:02:54;;;;;;;11.70;8.70;;;;;;;14.60;86.24;100771.77;94670;1193;80896;-77
2021/09/14 05:05:01;;;;;;;14.10;8.70;;;;;;;14.63;86.26;100772.56;94719;1192;97461;-74
2021/09/14 05:07:06;;;;;;;10.80;8.60;;;;;;;14.68;86.33;100771.02;94712;1192;87981;-63
2021/09/14 05:09:11;;;;;;;11.90;8.60;;;;;;;14.73;86.32;100775.17;94759;1192;94113;-63
2021/09/14 05:11:18;;;;;;;19.20;9.50;;;;;;;14.76;86.23;100775.51;94673;1192;80610;-64
2021/09/14 05:13:22;;;;;;;9.30;8.20;;;;;;;14.81;86.26;100773.67;94708;1193;81111;-63
2021/09/14 05:15:27;;;;;;;16.40;8.70;;;;;;;14.85;86.24;100772.52;94699;1184;97842;-75
2021/09/14 05:17:32;;;;;;;10.00;8.30;;;;;;;14.87;86.31;100770.30;94715;1192;86532;-75
2021/09/14 05:19:38;;;;;;;11.10;8.40;;;;;;;14.89;86.21;100769.04;94708;1192;94627;-75
2021/09/14 05:21:46;;;;;;;12.20;8.70;;;;;;;14.92;86.09;100770.70;94684;1192;80837;-74
2021/09/14 05:23:51;;;;;;;9.50;8.50;;;;;;;14.91;86.11;100775.86;94732;1192;80320;-75
2021/09/14 05:26:01;;;;;;;12.40;8.50;;;;;;;14.94;86.03;100778.99;94700;1192;97927;-74
2021/09/14 05:28:06;;;;;;;10.10;8.10;;;;;;;14.98;85.94;100778.09;94724;1192;86627;-76
2021/09/14 05:30:12;;;;;;;17.60;9.70;;;;;;;15.02;85.72;100781.30;94716;1193;92937;-76
2021/09/14 05:32:17;;;;;;;19.90;15.70;;;;;;;15.02;85.82;100779.34;94714;1192;78581;-75
2021/09/14 05:34:22;;;;;;;16.60;12.50;;;;;;;15.01;85.76;100781.73;94738;1191;81817;-75
2021/09/14 05:36:26;;;;;;;10.20;8.30;;;;;;;15.02;85.76;100780.77;94726;1192;97901;-73
2021/09/14 05:38:31;;;;;;;12.50;8.10;;;;;;;15.01;85.85;100781.23;94704;1192;86648;-67
2021/09/14 05:40:36;;;;;;;10.30;7.90;;;;;;;15.03;85.81;100781.71;94751;1192;94288;-70
2021/09/14 05:42:40;;;;;;;8.70;7.80;;;;;;;15.03;85.89;100781.64;94688;1191;78356;-71
2021/09/14 05:44:44;;;;;;;12.70;8.20;;;;;;;15.05;85.93;100781.27;94694;1192;81368;-72
2021/09/14 05:46:49;;;;;;;15.30;9.30;;;;;;;15.05;86.01;100780.67;94625;1192;98874;-67
2021/09/14 05:48:53;;;;;;;12.40;8.20;;;;;;;15.05;85.95;100783.40;94681;1193;86967;-67
2021/09/14 05:51:00;;;;;;;11.20;8.90;;;;;;;15.08;85.90;100786.41;94691;1193;92265;-72
2021/09/14 05:53:08;;;;;;;12.50;9.10;;;;;;;15.11;85.95;100789.39;94699;1192;79623;-70
2021/09/14 05:55:12;;;;;;;13.40;9.00;;;;;;;15.16;86.06;100787.17;94528;1192;80556;-71
2021/09/14 05:57:17;;;;;;;12.20;9.90;;;;;;;15.19;86.06;100783.11;94683;1191;97743;-71
2021/09/14 05:59:21;;;;;;;14.20;11.70;;;;;;;15.25;86.01;100784.82;94689;1192;87108;-70
2021/09/14 06:01:25;;;;;;;14.80;12.30;;;;;;;15.29;85.84;100785.11;94726;1192;93038;-66
2021/09/14 06:03:32;;;;;;;15.30;12.10;;;;;;;15.32;85.83;100785.48;94735;1192;81166;-67
2021/09/14 06:05:36;;;;;;;13.90;12.60;;;;;;;15.35;85.80;100787.91;94715;1192;81450;-71
2021/09/14 06:07:43;;;;;;;14.40;12.70;;;;;;;15.40;85.86;100791.93;94689;1192;98364;-70
2021/09/14 06:09:47;;;;;;;13.20;11.90;;;;;;;15.44;85.99;100790.02;94717;1192;87891;-70
2021/09/14 06:11:52;;;;;;;16.50;11.00;;;;;;;15.47;85.95;100789.14;94704;1193;94332;-67
2021/09/14 06:13:59;;;;;;;12.60;10.00;;;;;;;15.53;85.88;100790.19;94721;1177;81081;-67
2021/09/14 06:16:05;;;;;;;10.70;9.40;;;;;;;15.57;85.78;100793.02;94702;1192;80880;-72
2021/09/14 06:18:10;;;;;;;13.20;10.50;;;;;;;15.59;85.64;100796.25;94733;1192;98366;-72
2021/09/14 06:20:14;;;;;;;11.00;9.90;;;;;;;15.60;85.68;100795.52;94736;1191;86579;-72
2021/09/14 06:22:21;;;;;;;15.10;10.20;;;;;;;15.66;85.74;100797.23;94719;1192;94407;-72
2021/09/14 06:24:25;;;;;;;12.00;10.30;;;;;;;15.71;85.65;100795.38;94699;1192;81272;-71
2021/09/14 06:26:30;;;;;;;14.10;11.20;;;;;;;15.77;85.59;100801.77;94756;1192;81271;-72
2021/09/14 06:28:34;;;;;;;14.80;11.20;;;;;;;15.81;85.41;100800.90;94760;1193;97072;-71
2021/09/14 06:30:38;;;;;;;11.90;10.30;;;;;;;15.83;85.30;100802.02;94736;1193;86936;-72
2021/09/14 06:32:42;;;;;;;14.20;12.00;;;;;;;15.84;85.33;100805.08;94744;1191;93640;-72
2021/09/14 06:34:46;;;;;;;13.90;11.20;;;;;;;15.85;85.39;100804.45;94654;1191;80093;-72
2021/09/14 06:36:51;;;;;;;11.20;10.00;;;;;;;15.87;85.41;100804.82;94726;1192;80961;-72
2021/09/14 06:38:55;;;;;;;13.00;11.10;;;;;;;15.94;85.39;100804.20;94726;1191;99286;-73
2021/09/14 06:40:59;;;;;;;13.10;11.00;;;;;;;16.01;85.27;100806.49;94742;1191;87465;-72
2021/09/14 06:43:03;;;;;;;13.30;10.30;;;;;;;16.06;85.20;100802.54;94693;1193;94336;-79
2021/09/14 06:45:10;;;;;;;14.00;11.60;;;;;;;16.12;85.25;100805.15;94729;1191;79591;-77
2021/09/14 06:47:14;;;;;;;13.30;11.40;;;;;;;16.16;85.35;100801.41;94714;1193;82470;-73
2021/09/14 06:49:20;;;;;;;13.20;10.80;;;;;;;16.18;85.22;100802.23;94653;1193;98844;-79
2021/09/14 06:51:28;;;;;;;9.80;7.50;;;;;;;16.25;85.18;100801.75;94648;1192;86902;-64
2021/09/14 06:53:38;;;;;;;12.40;9.20;;;;;;;16.30;85.04;100804.58;94714;1192;92424;-63
2021/09/14 06:55:45;;;;;;;10.20;8.30;;;;;;;16.33;84.95;100803.77;94666;1192;80580;-63
2021/09/14 06:57:50;;;;;;;8.60;7.50;;;;;;;16.37;84.75;100805.47;94701;1191;82781;-64
2021/09/14 06:59:59;;;;;;;10.60;8.30;;;;;;;16.42;84.68;100801.21;94691;1193;99673;-63
2021/09/14 07:02:07;;;;;;;7.40;6.10;;;;;;;16.47;84.48;100801.14;94486;1192;87930;-63
2021/09/14 07:04:12;;;;;;;8.70;6.60;;;;;;;16.51;84.34;100800.24;94707;1192;93687;-64
2021/09/14 07:06:16;;;;;;;9.70;7.50;;;;;;;16.60;84.37;100802.27;94772;1192;78367;-77
2021/09/14 07:08:21;;;;;;;11.30;7.20;;;;;;;16.75;84.38;100801.35;94668;1192;80992;-79
2021/09/14 07:10:25;;;;;;;8.70;5.90;;;;;;;16.90;84.35;100800.99;94691;1192;98892;-63
2021/09/14 07:12:29;;;;;;;12.10;6.20;;;;;;;17.00;83.92;100803.05;94719;1191;88381;-63
2021/09/14 07:14:34;;;;;;;9.00;6.40;;;;;;;17.02;83.73;100802.70;94701;1191;92895;-64
2021/09/14 07:16:38;;;;;;;13.20;7.10;;;;;;;17.22;83.80;100800.23;94686;1191;78152;-63
2021/09/14 07:18:42;;;;;;;11.20;7.30;;;;;;;17.49;83.70;100802.69;94709;1192;80655;-63
2021/09/14 07:20:46;;;;;;;12.60;7.30;;;;;;;17.69;83.40;100799.88;94665;1192;98377;-78
2021/09/14 07:22:50;;;;;;;14.90;7.80;;;;;;;17.82;83.01;100801.29;94687;1193;87933;-78
2021/09/14 07:24:55;;;;;;;15.50;7.50;;;;;;;18.00;82.95;100804.32;94710;1192;92968;-76
2021/09/14 07:27:03;;;;;;;15.10;7.40;;;;;;;18.21;82.96;100802.15;94719;1192;79261;-77
2021/09/14 07:29:07;;;;;;;12.60;7.80;;;;;;;18.44;82.86;100804.67;94690;1192;82855;-74
2021/09/14 07:31:11;;;;;;;16.80;8.50;;;;;;;18.68;82.36;100807.73;94677;1191;99140;-77
2021/09/14 07:33:16;;;;;;;13.40;7.20;;;;;;;18.83;81.82;100805.79;94692;1177;88247;-78
2021/09/14 07:35:20;;;;;;;13.70;7.80;;;;;;;19.01;81.39;100806.42;94686;1193;94129;-74
2021/09/14 07:37:25;;;;;;;13.80;7.70;;;;;;;19.02;80.78;100806.38;94701;1192;78533;-72
2021/09/14 07:39:29;;;;;;;11.00;7.60;;;;;;;18.95;80.31;100809.77;94726;1192;81488;-74
2021/09/14 07:41:36;;;;;;;11.10;7.40;;;;;;;18.83;79.95;100809.19;94718;1192;97148;-74
2021/09/14 07:43:40;;;;;;;8.30;7.30;;;;;;;18.68;79.87;100815.02;94727;1193;88146;-74
2021/09/14 07:45:45;;;;;;;9.40;6.70;;;;;;;18.69;79.78;100814.27;94692;1192;93489;-73
2021/09/14 07:47:49;;;;;;;8.80;7.10;;;;;;;18.84;79.82;100808.96;94691;1191;79468;-73
2021/09/14 07:49:56;;;;;;;8.00;7.20;;;;;;;18.73;79.49;100809.35;94749;1192;81283;-72
2021/09/14 07:52:00;;;;;;;11.30;7.80;;;;;;;18.73;79.41;100806.77;94726;1193;98350;-71
2021/09/14 07:54:04;;;;;;;10.50;7.40;;;;;;;18.63;79.11;100806.98;94728;1193;87283;-73
2021/09/14 07:56:08;;;;;;;9.70;7.10;;;;;;;18.80;79.34;100803.63;94710;1192;91853;-72
2021/09/14 07:58:12;;;;;;;9.30;6.70;;;;;;;18.93;78.68;100804.13;94717;1192;79715;-73
2021/09/14 08:00:18;;;;;;;7.20;6.00;;;;;;;18.94;78.55;100806.17;94663;1191;82223;-73
2021/09/14 08:02:22;;;;;;;11.50;7.60;;;;;;;19.18;78.70;100803.34;94720;1191;98331;-72
2021/09/14 08:04:26;;;;;;;10.40;7.20;;;;;;;19.69;78.89;100807.91;94716;1191;86931;-73
2021/09/14 08:06:34;;;;;;;6.70;5.60;;;;;;;20.36;79.29;100807.02;94726;1192;94260;-73
2021/09/14 08:08:38;;;;;;;6.40;4.50;;;;;;;21.76;78.64;100802.71;94587;1192;79181;-72
2021/09/14 08:10:42;;;;;;;5.70;4.00;;;;;;;23.26;77.04;100800.77;94713;1192;82595;-73
2021/09/14 08:12:47;;;;;;;8.20;4.90;;;;;;;24.86;75.19;100803.59;94733;1192;97190;-73
2021/09/14 08:14:51;;;;;;;6.30;4.50;;;;;;;26.04;72.05;100799.35;94709;1192;87995;-72
2021/09/14 08:16:55;;;;;;;7.10;4.50;;;;;;;27.26;71.11;100796.70;94723;1192;93926;-73
2021/09/14 08:18:59;;;;;;;4.60;3.90;;;;;;;28.45;68.56;100800.71;94717;1193;80595;-72
2021/09/14 08:21:04;;;;;;;6.30;4.50;;;;;;;28.74;65.21;100803.70;94758;1193;81025;-74
2021/09/14 08:23:08;;;;;;;4.70;3.80;;;;;;;28.34;63.82;100800.20;94725;1193;99479;-71
2021/09/14 08:25:13;;;;;;;6.50;3.60;;;;;;;27.53;62.45;100798.71;94755;1192;88427;-73
2021/09/14 08:27:20;;;;;;;5.90;4.20;;;;;;;27.72;62.79;100795.83;94733;1193;94427;-74
2021/09/14 08:29:24;;;;;;;5.20;4.00;;;;;;;28.43;61.25;100801.08;94730;1193;79994;-73
2021/09/14 08:31:29;;;;;;;6.60;3.90;;;;;;;28.18;59.14;100798.77;94705;1193;81678;-73
2021/09/14 08:33:37;;;;;;;5.30;4.50;;;;;;;26.97;59.32;100798.48;94734;1192;98671;-70
2021/09/14 08:35:41;;;;;;;6.10;4.40;;;;;;;26.17;60.03;100800.54;94761;1192;86691;-74
2021/09/14 08:37:48;;;;;;;4.80;3.70;;;;;;;26.50;60.77;100796.98;94729;1192;92331;-74
2021/09/14 08:39:52;;;;;;;6.10;4.00;;;;;;;26.37;59.65;100801.92;94725;1193;79072;-73
2021/09/14 08:41:59;;;;;;;5.10;3.80;;;;;;;25.86;59.33;100798.45;94757;1192;81207;-74
2021/09/14 08:44:07;;;;;;;5.20;4.10;;;;;;;25.10;59.51;100801.64;94693;1193;99177;-73
2021/09/14 08:46:13;;;;;;;5.20;4.00;;;;;;;24.47;59.95;100801.85;94677;1193;86818;-75
2021/09/14 08:48:21;;;;;;;5.50;4.10;;;;;;;24.03;60.28;100805.95;94716;1193;93115;-73
2021/09/14 08:50:27;;;;;;;3.90;3.40;;;;;;;23.67;60.93;100807.92;94725;1192;78125;-74
2021/09/14 08:52:32;;;;;;;3.90;3.00;;;;;;;23.62;61.23;100811.75;94761;1193;81253;-74
2021/09/14 08:54:37;;;;;;;4.20;2.50;;;;;;;23.84;62.37;100812.11;94722;1193;97793;-73
2021/09/14 08:56:41;;;;;;;2.40;2.20;;;;;;;25.07;61.74;100807.69;94775;1192;86467;-74
2021/09/14 08:58:56;;;;;;;4.10;2.40;;;;;;;26.20;60.98;100815.42;94709;1193;94031;-74
2021/09/14 09:01:00;;;;;;;5.20;2.70;;;;;;;27.57;59.81;100819.20;94741;1193;78326;-74
2021/09/14 09:03:04;;;;;;;3.70;2.60;;;;;;;28.69;57.36;100813.55;94739;1193;80771;-74
2021/09/14 09:05:10;;;;;;;5.00;2.80;;;;;;;29.49;56.32;100813.05;94774;1191;98526;-73
2021/09/14 09:07:26;;;;;;;4.00;2.90;;;;;;;29.39;54.61;100819.39;94740;1193;88137;-74
2021/09/14 09:09:32;;;;;;;3.80;1.90;;;;;;;28.37;53.50;100820.11;94748;1192;93213;-73
2021/09/14 09:11:51;;;;;;;2.80;1.90;;;;;;;27.83;52.72;100814.32;94758;1187;78915;-74
2021/09/14 09:13:58;;;;;;;3.90;1.90;;;;;;;27.45;53.44;100812.84;94753;1191;81878;-73
2021/09/14 09:16:06;;;;;;;3.30;2.40;;;;;;;27.83;53.33;100818.55;94703;1193;99108;-73
2021/09/14 09:18:13;;;;;;;3.10;1.80;;;;;;;27.13;52.10;100819.39;94746;1193;88773;-73
2021/09/14 09:20:22;;;;;;;6.10;2.70;;;;;;;25.84;52.41;100824.02;94733;1191;93129;-74
2021/09/14 09:22:27;;;;;;;4.50;2.10;;;;;;;24.86;53.57;100827.07;94756;1193;79602;-73
2021/09/14 09:24:44;;;;;;;3.40;1.90;;;;;;;24.04;54.53;100831.51;94748;1191;79642;-74
2021/09/14 09:26:48;;;;;;;3.30;2.10;;;;;;;23.40;55.64;100828.34;94745;1191;98190;-74
2021/09/14 09:31:34;;;;;;;4.20;2.00;;;;;;;22.55;57.52;100831.84;94612;1180;93828;-73
2021/09/14 09:33:38;;;;;;;5.30;2.10;;;;;;;22.20;58.14;100837.05;94203;1195;78099;-73
2021/09/14 09:35:43;;;;;;;4.30;2.10;;;;;;;21.89;58.57;100832.33;94205;1194;81110;-62
2021/09/14 09:37:53;;;;;;;2.50;2.00;;;;;;;21.75;58.98;100833.90;94251;1194;97894;-69
2021/09/14 09:39:57;;;;;;;4.10;1.90;;;;;;;21.65;59.43;100836.83;94290;1194;86872;-65
2021/09/14 09:42:06;;;;;;;2.30;1.70;;;;;;;21.42;59.67;100833.05;94030;1195;91986;-76
2021/09/14 09:44:14;;;;;;;3.80;1.70;;;;;;;21.25;60.15;100829.74;94057;1195;78890;-74
2021/09/14 09:46:20;;;;;;;3.10;1.80;;;;;;;21.15;60.37;100829.51;94029;1195;81219;-63
2021/09/14 09:48:29;;;;;;;4.90;1.90;;;;;;;20.95;60.51;100831.27;93736;1196;100160;-64
2021/09/14 09:50:52;;;;;;;3.20;2.40;;;;;;;20.89;60.96;100827.86;94847;1181;84951;-76
2021/09/14 09:52:57;;;;;;;4.60;2.40;;;;;;;20.96;61.73;100829.69;94210;1195;94866;-77
2021/09/14 09:55:02;;;;;;;3.00;2.10;;;;;;;21.13;61.34;100823.83;94220;1195;78374;-75
2021/09/14 09:57:08;;;;;;;4.30;2.10;;;;;;;21.17;61.36;100822.58;94249;1195;80351;-77
2021/09/14 09:59:13;;;;;;;3.30;2.00;;;;;;;21.25;61.43;100820.23;94213;1194;97686;-76
2021/09/14 10:01:21;;;;;;;4.50;2.40;;;;;;;21.22;61.29;100820.69;94108;1194;88200;-78
2021/09/14 10:03:29;;;;;;;5.40;2.60;;;;;;;21.15;61.34;100819.89;94141;1194;93054;-78
2021/09/14 10:05:38;;;;;;;5.10;2.10;;;;;;;21.04;61.67;100823.63;94112;1195;79150;-64
2021/09/14 10:07:47;;;;;;;6.10;2.40;;;;;;;21.06;61.98;100823.41;94125;1196;80335;-63
2021/09/14 10:09:57;;;;;;;4.10;2.30;;;;;;;21.11;62.13;100826.20;94078;1194;97737;-63
2021/09/14 10:12:01;;;;;;;3.90;2.30;;;;;;;21.14;62.34;100824.45;94099;1195;86832;-64
2021/09/14 10:14:09;;;;;;;4.40;2.40;;;;;;;21.18;62.71;100824.63;94130;1195;94705;-62
2021/09/14 10:16:24;;;;;;;3.10;2.20;;;;;;;21.24;62.91;100825.61;94130;1195;79896;-76
2021/09/14 10:18:30;;;;;;;2.70;2.10;;;;;;;21.26;62.55;100819.59;94121;1195;80116;-76
2021/09/14 10:20:41;;;;;;;4.70;2.30;;;;;;;21.32;62.40;100822.55;94118;1194;97311;-63
2021/09/14 10:22:59;;;;;;;6.40;2.60;;;;;;;21.31;62.65;100822.75;94132;1194;88422;-63
2021/09/14 10:25:08;;;;;;;3.40;2.30;;;;;;;21.31;62.70;100822.54;94138;1195;93880;-65
2021/09/14 10:27:14;;;;;;;7.00;2.30;;;;;;;21.29;62.64;100821.30;94115;1196;80005;-64
2021/09/14 10:29:19;;;;;;;2.60;2.00;;;;;;;21.39;62.74;100820.30;94150;1194;81707;-64